Ozernaja, Russia
Current Conditions -  °F | °C
As of 4:00 PM on Wednesday 26 Nov 2014 (Local Time) from UHPP Reporting Station
Clear Clear  
Wind Chill: 20°   Ceiling: Unl
Heat Index: 32°   Visibility: 6mi
Dew Point:   Wind: 20mph
Humidity: 35%   Direction: 300°WNW
Pressure: 29.59"   Gusts: NA
Location:  51.48°N, 156.48°E
Report Text: UHPP 260400Z 30009MPS 9999 NSC M00/M14 Q1002 NOSIG RMKQFE748/0997 SC070
Loading
Personal Weather Stations






























Interactive Weather Map New forecast layout! Learn more

10-Day Weather Forecast

Advertisements
Track Severe Weather on mobile